createdAt,value
2019-03-12T00:01:37.098Z,12.50
2019-03-12T00:04:07.479Z,13.08
2019-03-12T00:06:37.890Z,12.40
2019-03-12T00:09:08.441Z,12.82
2019-03-12T00:11:38.974Z,12.88
2019-03-12T00:14:09.357Z,12.25
2019-03-12T00:16:39.722Z,12.58
2019-03-12T00:19:10.102Z,11.28
2019-03-12T00:21:40.459Z,12.68
2019-03-12T00:24:10.843Z,13.08
2019-03-12T00:26:41.205Z,12.07
2019-03-12T00:29:11.586Z,11.65
2019-03-12T00:31:41.950Z,12.00
2019-03-12T00:34:12.326Z,11.53
2019-03-12T00:36:42.692Z,11.65
2019-03-12T00:39:14.063Z,11.78
2019-03-12T00:41:44.503Z,12.58
2019-03-12T00:44:14.884Z,11.33
2019-03-12T00:46:45.246Z,12.50
2019-03-12T00:49:15.678Z,12.00
2019-03-12T00:51:46.026Z,11.88
2019-03-12T00:54:16.408Z,12.70
2019-03-12T00:56:46.769Z,12.60
2019-03-12T00:59:17.148Z,12.78
2019-03-12T01:01:47.513Z,13.13
2019-03-12T01:04:17.902Z,12.95
2019-03-12T01:06:48.258Z,12.93
2019-03-12T01:09:18.643Z,13.43
2019-03-12T01:11:48.999Z,13.60
2019-03-12T01:14:19.378Z,13.55
2019-03-12T01:16:49.745Z,13.88
2019-03-12T01:19:20.129Z,14.13
2019-03-12T01:21:50.498Z,13.48
2019-03-12T01:24:20.882Z,15.90
2019-03-12T01:26:51.237Z,14.85
2019-03-12T01:29:21.619Z,14.90
2019-03-12T01:31:51.982Z,15.63
2019-03-12T01:34:22.365Z,16.32
2019-03-12T01:36:52.745Z,15.75
2019-03-12T01:39:23.106Z,17.05
2019-03-12T01:41:53.470Z,16.02
2019-03-12T01:44:23.853Z,16.17
2019-03-12T01:46:54.217Z,17.42
2019-03-12T01:49:24.601Z,15.78
2019-03-12T01:51:56.032Z,16.52
2019-03-12T01:54:26.411Z,16.42
2019-03-12T01:56:56.766Z,15.93
2019-03-12T01:59:27.154Z,16.82
2019-03-12T02:01:57.518Z,17.62
2019-03-12T02:04:27.898Z,17.95
2019-03-12T02:06:58.267Z,18.65
2019-03-12T02:09:29.882Z,17.77
2019-03-12T02:12:00.241Z,18.00
2019-03-12T02:14:30.628Z,18.48
2019-03-12T02:17:00.998Z,18.37
2019-03-12T02:19:31.386Z,18.55
2019-03-12T02:22:01.750Z,17.87
2019-03-12T02:24:32.133Z,18.87
2019-03-12T02:27:02.505Z,18.25
2019-03-12T02:29:32.960Z,19.55
2019-03-12T02:32:04.268Z,19.00
2019-03-12T02:34:34.656Z,18.82
2019-03-12T02:37:05.786Z,19.37
2019-03-12T02:39:36.172Z,18.65
2019-03-12T02:42:06.531Z,19.32
2019-03-12T02:44:36.917Z,19.45
2019-03-12T02:47:07.283Z,18.55
2019-03-12T02:49:37.731Z,19.10
2019-03-12T02:52:27.436Z,18.82
2019-03-12T02:54:57.814Z,18.32
2019-03-12T02:57:28.188Z,19.27
2019-03-12T02:59:58.566Z,19.10
2019-03-12T03:02:28.931Z,18.73
2019-03-12T03:04:59.340Z,19.75
2019-03-12T03:07:37.270Z,19.65
2019-03-12T03:10:09.636Z,19.92
2019-03-12T03:12:40.002Z,21.12
2019-03-12T03:15:19.831Z,20.30
2019-03-12T03:17:50.256Z,20.30
2019-03-12T03:20:20.628Z,21.17
2019-03-12T03:22:50.992Z,20.17
2019-03-12T03:25:21.372Z,21.77
2019-03-12T03:27:51.729Z,20.00
2019-03-12T03:30:24.909Z,20.35
2019-03-12T03:32:55.505Z,19.45
2019-03-12T03:35:25.895Z,19.42
2019-03-12T03:37:56.245Z,19.85
2019-03-12T03:40:26.614Z,18.32
2019-03-12T03:42:56.977Z,18.42
2019-03-12T03:45:27.353Z,20.25
2019-03-12T03:47:58.717Z,18.40
2019-03-12T03:50:29.100Z,17.32
2019-03-12T03:52:59.526Z,18.45
2019-03-12T03:55:29.978Z,17.42
2019-03-12T03:58:00.377Z,18.10
2019-03-12T04:00:31.821Z,18.52
2019-03-12T04:03:02.189Z,17.65
2019-03-12T04:05:32.589Z,17.82
2019-03-12T04:08:02.927Z,17.10
2019-03-12T04:10:33.304Z,17.75
2019-03-12T04:13:03.665Z,16.80
2019-03-12T04:15:34.055Z,15.78
2019-03-12T04:18:04.447Z,16.40
2019-03-12T04:20:34.832Z,15.32
2019-03-12T04:23:05.285Z,16.20
2019-03-12T04:25:35.642Z,16.00
2019-03-12T04:28:06.024Z,15.40
2019-03-12T04:30:36.402Z,14.70
2019-03-12T04:33:09.844Z,13.50
2019-03-12T04:35:40.215Z,12.53
2019-03-12T04:38:10.584Z,13.00
2019-03-12T04:40:41.073Z,12.90
2019-03-12T04:43:11.434Z,12.30
2019-03-12T04:45:41.816Z,12.98
2019-03-12T04:48:12.181Z,13.13
2019-03-12T04:50:42.557Z,13.03
2019-03-12T04:53:12.922Z,13.95
2019-03-12T04:55:43.308Z,12.95
2019-03-12T04:58:13.669Z,14.40
2019-03-12T05:00:44.057Z,12.30
2019-03-12T05:03:14.425Z,12.82
2019-03-12T05:05:44.974Z,11.55
2019-03-12T05:08:15.314Z,13.55
2019-03-12T05:10:45.774Z,12.00
2019-03-12T05:13:16.132Z,10.98
2019-03-12T05:15:46.519Z,11.85
2019-03-12T05:18:17.889Z,11.20
2019-03-12T05:20:48.267Z,12.23
2019-03-12T05:23:18.632Z,11.65
2019-03-12T05:25:49.015Z,10.78
2019-03-12T05:28:19.379Z,11.75
2019-03-12T05:30:49.765Z,11.55
2019-03-12T05:33:20.120Z,12.05
2019-03-12T05:35:50.506Z,12.33
2019-03-12T05:38:20.876Z,12.63
2019-03-12T05:40:51.258Z,13.13
2019-03-12T05:43:21.611Z,12.07
2019-03-12T05:45:52.004Z,12.13
2019-03-12T05:48:22.366Z,11.85
2019-03-12T05:50:52.739Z,13.13
2019-03-12T05:53:27.707Z,18.73
2019-03-12T05:55:58.098Z,11.95
2019-03-12T05:58:28.451Z,12.13
2019-03-12T06:00:58.854Z,11.85
2019-03-12T06:03:29.309Z,10.80
2019-03-12T06:05:59.694Z,9.03
2019-03-12T06:08:30.068Z,9.18
2019-03-12T06:11:00.480Z,9.95
2019-03-12T06:13:30.851Z,9.38
2019-03-12T06:16:01.212Z,8.65
2019-03-12T06:18:31.595Z,9.85
2019-03-12T06:21:02.928Z,9.23
2019-03-12T06:23:33.314Z,10.45
2019-03-12T06:26:03.675Z,8.88
2019-03-12T06:28:34.223Z,9.35
2019-03-12T06:31:12.237Z,8.98
2019-03-12T06:33:52.992Z,9.65
2019-03-12T06:36:31.179Z,9.40
2019-03-12T06:39:19.633Z,9.13
2019-03-12T06:41:51.722Z,9.53
2019-03-12T06:44:35.546Z,10.35
2019-03-12T06:47:22.415Z,10.32
2019-03-12T06:49:54.443Z,10.55
2019-03-12T06:52:45.377Z,10.38
2019-03-12T06:55:17.423Z,11.05
2019-03-12T06:58:26.066Z,11.35
2019-03-12T07:01:14.466Z,10.65
2019-03-12T07:03:46.650Z,11.15
2019-03-12T07:06:21.391Z,11.70
2019-03-12T07:09:02.488Z,11.53
2019-03-12T07:11:54.257Z,11.20
2019-03-12T07:14:42.522Z,10.90
2019-03-12T07:17:20.338Z,10.88
2019-03-12T07:19:52.423Z,11.05
2019-03-12T07:22:24.482Z,10.93
2019-03-12T07:25:13.089Z,11.40
2019-03-12T07:28:01.494Z,11.20
2019-03-12T07:30:49.663Z,10.38
2019-03-12T07:33:27.202Z,10.38
2019-03-12T07:36:14.364Z,10.93
2019-03-12T07:38:49.227Z,11.10
2019-03-12T07:41:32.171Z,10.70
2019-03-12T07:44:07.328Z,10.93
2019-03-12T07:46:51.134Z,10.95
2019-03-12T07:52:19.202Z,11.25
2019-03-12T07:54:51.206Z,11.75
2019-03-12T07:57:23.291Z,10.63
2019-03-12T08:00:04.271Z,10.80
2019-03-12T08:02:49.754Z,9.45
2019-03-12T08:05:33.889Z,10.23
2019-03-12T08:08:05.975Z,9.65
2019-03-12T08:10:37.983Z,9.90
2019-03-12T08:13:10.003Z,9.63
2019-03-12T08:15:53.680Z,9.33
2019-03-12T08:18:25.683Z,8.55
2019-03-12T08:21:22.148Z,8.45
2019-03-12T08:23:53.895Z,9.05
2019-03-12T08:26:34.906Z,9.23
2019-03-12T08:29:09.553Z,8.00
2019-03-12T08:31:59.611Z,8.20
2019-03-12T08:34:40.553Z,8.38
2019-03-12T08:37:15.517Z,8.68
2019-03-12T08:39:50.180Z,8.10
2019-03-12T08:42:53.709Z,7.47
2019-03-12T08:45:31.037Z,8.08
2019-03-12T08:48:15.343Z,8.18
2019-03-12T08:50:47.544Z,9.28
2019-03-12T08:53:34.778Z,9.40
2019-03-12T08:56:09.894Z,9.18
2019-03-12T08:58:41.923Z,8.40
2019-03-12T09:01:16.847Z,8.48
2019-03-12T09:04:00.796Z,7.80
2019-03-12T09:06:38.996Z,7.90
2019-03-12T09:09:19.750Z,7.85
2019-03-12T09:11:54.695Z,8.05
2019-03-12T09:14:26.712Z,7.45
2019-03-12T09:17:04.665Z,6.28
2019-03-12T09:19:36.674Z,5.40
2019-03-12T09:22:11.723Z,5.20
2019-03-12T09:25:00.429Z,4.83
2019-03-12T09:27:47.555Z,3.92
2019-03-12T09:30:19.312Z,3.92
2019-03-12T09:32:51.183Z,3.25
2019-03-12T09:35:26.862Z,3.60
2019-03-12T09:38:14.101Z,3.22
2019-03-12T09:40:58.349Z,3.20
2019-03-12T09:43:31.426Z,2.70
2019-03-12T09:46:12.644Z,2.58
2019-03-12T09:48:50.532Z,2.55
2019-03-12T09:51:22.554Z,2.37
2019-03-12T09:54:10.824Z,1.92
2019-03-12T09:56:45.809Z,2.25
2019-03-12T09:59:17.822Z,2.00
2019-03-12T10:02:08.179Z,1.95
2019-03-12T10:04:48.957Z,1.87
2019-03-12T10:07:30.104Z,1.70
2019-03-12T10:10:02.093Z,1.95
2019-03-12T10:12:51.090Z,1.47
2019-03-12T10:15:39.547Z,1.20
2019-03-12T10:18:17.402Z,1.30
2019-03-12T10:21:05.834Z,1.52
2019-03-12T10:23:43.851Z,1.35
2019-03-12T10:26:25.017Z,1.10
2019-03-12T10:29:02.825Z,1.55
2019-03-12T10:31:34.839Z,1.42
2019-03-12T10:34:15.592Z,1.22
2019-03-12T10:36:47.623Z,1.15
2019-03-12T10:40:07.850Z,1.22
2019-03-12T10:43:07.687Z,1.20
2019-03-12T10:45:59.044Z,1.02
2019-03-12T10:48:29.597Z,1.52
2019-03-12T10:50:59.957Z,1.45
2019-03-12T10:53:30.614Z,1.15
2019-03-12T10:56:00.993Z,1.30
2019-03-12T10:58:32.089Z,1.20
2019-03-12T11:01:02.435Z,1.15
2019-03-12T11:03:35.520Z,1.62
2019-03-12T11:06:05.949Z,1.02
2019-03-12T11:08:36.366Z,1.10
2019-03-12T11:11:06.792Z,1.07
2019-03-12T11:13:37.174Z,0.85
2019-03-12T11:16:07.535Z,0.80
2019-03-12T11:18:37.919Z,0.90
2019-03-12T11:21:08.300Z,0.90
2019-03-12T11:23:38.713Z,0.88
2019-03-12T11:26:09.057Z,0.93
2019-03-12T11:28:40.249Z,0.60
2019-03-12T11:31:10.606Z,0.80
2019-03-12T11:33:40.998Z,0.82
2019-03-12T11:36:11.373Z,0.98
2019-03-12T11:38:41.760Z,0.80
2019-03-12T11:41:12.144Z,1.22
2019-03-12T11:43:42.502Z,0.90
2019-03-12T11:46:12.873Z,0.85
2019-03-12T11:48:43.248Z,0.80
2019-03-12T11:51:13.613Z,1.10
2019-03-12T11:53:44.005Z,0.85
2019-03-12T11:56:14.417Z,0.80
2019-03-12T11:58:44.839Z,1.10
2019-03-12T12:01:15.390Z,0.72
2019-03-12T12:03:45.758Z,0.80
2019-03-12T12:06:16.133Z,1.25
2019-03-12T12:08:46.511Z,1.00
2019-03-12T12:11:16.882Z,0.95
2019-03-12T12:13:47.279Z,1.05
2019-03-12T12:16:17.819Z,0.90
2019-03-12T12:18:48.205Z,1.07
2019-03-12T12:21:18.607Z,1.00
2019-03-12T12:23:48.982Z,1.30
2019-03-12T12:26:19.344Z,0.95
2019-03-12T12:28:49.810Z,1.20
2019-03-12T12:31:20.178Z,1.20
2019-03-12T12:33:50.566Z,1.22
2019-03-12T12:36:20.930Z,1.27
2019-03-12T12:38:51.326Z,1.07
2019-03-12T12:41:21.674Z,1.37
2019-03-12T12:43:52.066Z,1.05
2019-03-12T12:46:22.429Z,1.30
2019-03-12T12:48:53.416Z,1.30
2019-03-12T12:51:24.035Z,1.30
2019-03-12T12:53:54.419Z,1.55
2019-03-12T12:56:24.781Z,1.20
2019-03-12T12:58:55.174Z,1.50
2019-03-12T13:01:25.531Z,1.00
2019-03-12T13:03:55.918Z,1.10
2019-03-12T13:06:26.281Z,1.35
2019-03-12T13:08:56.672Z,1.10
2019-03-12T13:11:27.026Z,1.10
2019-03-12T13:13:57.417Z,1.00
2019-03-12T13:16:27.781Z,1.00
2019-03-12T13:18:58.172Z,1.35
2019-03-12T13:21:28.535Z,1.15
2019-03-12T13:23:58.916Z,0.80
2019-03-12T13:26:29.281Z,1.27
2019-03-12T13:28:59.672Z,1.05
2019-03-12T13:31:30.052Z,1.20
2019-03-12T13:34:00.435Z,1.20
2019-03-12T13:36:30.802Z,1.30
2019-03-12T13:39:01.218Z,1.67
2019-03-12T13:41:33.578Z,1.40
2019-03-12T13:44:03.979Z,1.42
2019-03-12T13:46:34.321Z,1.75
2019-03-12T13:49:04.713Z,1.90
2019-03-12T13:51:35.319Z,2.02
2019-03-12T13:54:05.695Z,2.47
2019-03-12T13:56:36.045Z,2.52
2019-03-12T13:59:06.577Z,2.60
2019-03-12T14:01:37.083Z,2.87
2019-03-12T14:04:10.693Z,2.87
2019-03-12T14:06:39.528Z,3.37
2019-03-12T14:09:09.982Z,2.40
2019-03-12T14:11:41.979Z,2.40
2019-03-12T14:14:12.370Z,2.45
2019-03-12T14:16:42.731Z,2.70
2019-03-12T14:19:13.121Z,2.80
2019-03-12T14:21:43.656Z,3.22
2019-03-12T14:24:14.045Z,2.90
2019-03-12T14:26:44.403Z,2.45
2019-03-12T14:29:14.788Z,2.85
2019-03-12T14:31:45.194Z,3.20
2019-03-12T14:34:15.588Z,3.15
2019-03-12T14:36:46.230Z,3.40
2019-03-12T14:39:17.760Z,3.00
2019-03-12T14:41:48.204Z,2.92
2019-03-12T14:44:18.665Z,3.33
2019-03-12T14:46:49.095Z,3.80
2019-03-12T14:49:19.520Z,3.05
2019-03-12T14:52:00.276Z,2.95
2019-03-12T14:54:30.655Z,4.03
2019-03-12T14:57:01.121Z,3.62
2019-03-12T14:59:31.489Z,4.05
2019-03-12T15:02:02.922Z,4.08
2019-03-12T15:04:33.311Z,3.85
2019-03-12T15:07:03.762Z,3.83
2019-03-12T15:09:34.146Z,3.75
2019-03-12T15:12:04.500Z,4.10
2019-03-12T15:14:34.884Z,3.70
2019-03-12T15:17:06.318Z,4.00
2019-03-12T15:19:36.711Z,3.87
2019-03-12T15:22:08.245Z,4.00
2019-03-12T15:24:38.627Z,4.05
2019-03-12T15:27:09.062Z,3.70
2019-03-12T15:29:39.451Z,4.12
2019-03-12T15:32:09.811Z,3.60
2019-03-12T15:34:40.204Z,3.90
2019-03-12T15:37:10.574Z,3.50
2019-03-12T15:39:40.962Z,3.42
2019-03-12T15:42:12.812Z,3.27
2019-03-12T15:44:43.363Z,3.30
2019-03-12T15:47:13.718Z,2.98
2019-03-12T15:49:44.693Z,3.22
2019-03-12T15:52:15.102Z,3.17
2019-03-12T15:54:45.630Z,2.98
2019-03-12T15:57:16.055Z,2.45
2019-03-12T15:59:46.435Z,2.52
2019-03-12T16:02:16.821Z,3.42
2019-03-12T16:04:47.253Z,2.50
2019-03-12T16:07:17.598Z,2.37
2019-03-12T16:09:47.983Z,2.60
2019-03-12T16:12:20.020Z,2.75
2019-03-12T16:14:50.502Z,3.37
2019-03-12T16:17:20.864Z,2.90
2019-03-12T16:19:51.336Z,2.70
2019-03-12T16:22:21.782Z,2.83
2019-03-12T16:24:52.166Z,2.58
2019-03-12T16:27:22.540Z,2.25
2019-03-12T16:29:52.906Z,2.55
2019-03-12T16:32:23.252Z,2.50
2019-03-12T16:34:53.632Z,2.50
2019-03-12T16:37:27.886Z,2.80
2019-03-12T16:39:58.234Z,2.62
2019-03-12T16:42:35.060Z,2.50
2019-03-12T16:45:00.669Z,2.58
2019-03-12T16:47:31.039Z,2.47
2019-03-12T16:50:02.481Z,2.55
2019-03-12T16:52:32.865Z,2.70
2019-03-12T16:55:03.221Z,2.85
2019-03-12T16:57:33.605Z,2.80
2019-03-12T17:00:08.529Z,2.83
2019-03-12T17:02:38.127Z,2.92
2019-03-12T17:05:11.465Z,2.85
2019-03-12T17:07:41.832Z,3.02
2019-03-12T17:10:17.929Z,2.60
2019-03-12T17:12:48.296Z,2.55
2019-03-12T17:15:25.944Z,2.95
2019-03-12T17:17:56.382Z,3.33
2019-03-12T17:20:26.736Z,2.98
2019-03-12T17:22:57.206Z,2.65
2019-03-12T17:25:27.551Z,2.47
2019-03-12T17:27:57.926Z,2.50
2019-03-12T17:30:28.280Z,2.30
2019-03-12T17:32:58.656Z,3.15
2019-03-12T17:35:37.860Z,2.27
2019-03-12T17:38:08.246Z,2.45
2019-03-12T17:40:38.610Z,2.60
2019-03-12T17:43:09.000Z,2.65
2019-03-12T17:45:39.368Z,2.40
2019-03-12T17:48:09.747Z,2.75
2019-03-12T17:50:40.165Z,2.40
2019-03-12T17:53:10.538Z,2.33
2019-03-12T17:55:40.890Z,3.20
2019-03-12T17:58:11.275Z,3.22
2019-03-12T18:00:45.373Z,2.72
2019-03-12T18:03:15.796Z,3.15
2019-03-12T18:05:46.213Z,2.42
2019-03-12T18:08:16.664Z,3.05
2019-03-12T18:10:47.100Z,2.58
2019-03-12T18:13:17.475Z,1.95
2019-03-12T18:15:47.833Z,2.87
2019-03-12T18:18:18.217Z,2.77
2019-03-12T18:20:48.574Z,2.85
2019-03-12T18:23:18.954Z,2.75
2019-03-12T18:25:51.317Z,2.40
2019-03-12T18:28:21.794Z,2.70
2019-03-12T18:30:52.153Z,2.37
2019-03-12T18:33:22.534Z,3.12
2019-03-12T18:35:52.897Z,2.45
2019-03-12T18:38:23.268Z,2.05
2019-03-12T18:40:53.629Z,2.50
2019-03-12T18:43:24.007Z,2.60
2019-03-12T18:45:54.357Z,2.60
2019-03-12T18:48:24.756Z,2.22
2019-03-12T18:50:55.105Z,2.45
2019-03-12T18:53:25.483Z,2.40
2019-03-12T18:56:03.100Z,2.50
2019-03-12T18:58:33.481Z,2.33
2019-03-12T19:01:04.478Z,2.85
2019-03-12T19:03:34.933Z,2.35
2019-03-12T19:06:05.458Z,2.60
2019-03-12T19:08:35.843Z,2.35
2019-03-12T19:11:06.435Z,3.02
2019-03-12T19:13:36.992Z,2.62
2019-03-12T19:16:08.330Z,2.70
2019-03-12T19:18:39.781Z,2.12
2019-03-12T19:21:10.239Z,1.90
2019-03-12T19:23:40.617Z,2.50
2019-03-12T19:26:10.972Z,2.62
2019-03-12T19:28:42.429Z,2.35
2019-03-12T19:31:14.497Z,2.42
2019-03-12T19:33:44.954Z,2.00
2019-03-12T19:36:15.313Z,2.33
2019-03-12T19:38:45.684Z,1.92
2019-03-12T19:41:16.108Z,2.22
2019-03-12T19:43:46.481Z,2.12
2019-03-12T19:46:16.836Z,2.40
2019-03-12T19:48:47.398Z,2.20
2019-03-12T19:51:17.834Z,2.50
2019-03-12T19:53:52.482Z,2.20
2019-03-12T19:56:22.849Z,2.40
2019-03-12T19:58:53.459Z,2.37
2019-03-12T20:01:24.318Z,2.58
2019-03-12T20:04:03.159Z,2.25
2019-03-12T20:06:33.273Z,2.47
2019-03-12T20:09:06.435Z,2.40
2019-03-12T20:12:03.423Z,1.90
2019-03-12T20:15:03.507Z,2.33
2019-03-12T20:18:05.767Z,2.65
2019-03-12T20:21:15.721Z,1.60
2019-03-12T20:24:24.993Z,2.17
2019-03-12T20:27:22.633Z,2.35
2019-03-12T20:30:14.093Z,2.20
2019-03-12T20:33:08.714Z,2.83
2019-03-12T20:36:12.099Z,2.77
2019-03-12T20:39:23.860Z,2.47
2019-03-12T20:42:38.143Z,2.45
2019-03-12T20:45:32.206Z,2.83
2019-03-12T20:48:35.975Z,2.50
2019-03-12T20:51:49.733Z,3.75
2019-03-12T20:54:50.184Z,2.10
2019-03-12T20:58:05.874Z,2.55
2019-03-12T21:01:27.989Z,2.22
2019-03-12T21:04:20.501Z,2.55
2019-03-12T21:07:31.745Z,2.05
2019-03-12T21:10:52.154Z,2.47
2019-03-12T21:14:01.856Z,2.17
2019-03-12T21:17:09.973Z,2.58
2019-03-12T21:20:22.943Z,2.15
2019-03-12T21:22:57.937Z,2.95
2019-03-12T21:25:52.684Z,2.62
2019-03-12T21:29:03.455Z,2.08
2019-03-12T21:31:33.804Z,2.15
2019-03-12T21:34:04.178Z,2.47
2019-03-12T21:36:34.530Z,2.58
2019-03-12T21:39:07.691Z,2.60
2019-03-12T21:41:39.832Z,2.72
2019-03-12T21:44:10.249Z,2.08
2019-03-12T21:46:40.635Z,2.83
2019-03-12T21:49:11.015Z,2.87
2019-03-12T21:51:41.374Z,2.05
2019-03-12T21:54:11.745Z,2.70
2019-03-12T21:56:42.135Z,2.27
2019-03-12T21:59:12.495Z,2.55
2019-03-12T22:01:42.851Z,2.58
2019-03-12T22:04:13.232Z,2.55
2019-03-12T22:06:43.587Z,2.35
2019-03-12T22:09:13.962Z,2.10
2019-03-12T22:11:44.317Z,2.40
2019-03-12T22:14:14.693Z,2.55
2019-03-12T22:16:46.230Z,2.33
2019-03-12T22:19:16.954Z,2.50
2019-03-12T22:21:58.168Z,2.30
2019-03-12T22:24:28.520Z,2.10
2019-03-12T22:26:59.047Z,2.30
2019-03-12T22:29:29.794Z,2.10
2019-03-12T22:32:00.142Z,2.05
2019-03-12T22:34:30.551Z,2.35
2019-03-12T22:37:00.862Z,2.33
2019-03-12T22:39:31.231Z,2.62
2019-03-12T22:42:01.579Z,1.90
2019-03-12T22:44:32.068Z,2.37
2019-03-12T22:47:08.237Z,2.12
2019-03-12T22:49:41.576Z,1.75
2019-03-12T22:52:12.284Z,2.40
2019-03-12T22:54:42.632Z,1.80
2019-03-12T22:57:13.088Z,2.40
2019-03-12T23:00:01.412Z,1.90
2019-03-12T23:02:49.789Z,1.80
2019-03-12T23:05:38.254Z,1.72
2019-03-12T23:08:26.765Z,1.70
2019-03-12T23:10:58.766Z,1.45
2019-03-12T23:13:29.118Z,1.40
2019-03-12T23:15:59.664Z,1.67
2019-03-12T23:18:30.018Z,1.40
2019-03-12T23:21:00.565Z,1.60
2019-03-12T23:23:30.978Z,2.00
2019-03-12T23:26:01.449Z,1.30
2019-03-12T23:28:31.866Z,1.25
2019-03-12T23:31:02.402Z,1.77
2019-03-12T23:33:32.737Z,1.40
2019-03-12T23:36:04.080Z,1.55
2019-03-12T23:38:34.427Z,1.47
2019-03-12T23:41:04.802Z,1.57
2019-03-12T23:43:35.152Z,1.45
2019-03-12T23:46:17.668Z,1.45
2019-03-12T23:48:48.094Z,1.37
2019-03-12T23:51:18.482Z,1.37
2019-03-12T23:53:48.892Z,1.35
2019-03-12T23:56:19.435Z,1.40
2019-03-12T23:58:49.922Z,1.37
